Time;durP1;ratioP1;P1;durP2;ratioP2;P2;SDS_P1;SDS_P2;PMS_P1;PMS_P2;Temp;Humidity;BMP_temperature;BMP_pressure;BME280_temperature;BME280_humidity;BME280_pressure;Samples;Min_cycle;Max_cycle;Signal;HPM_P1;HPM_P2
2022/06/17 00:01:40;;;;;;;6.90;5.00;;;22.10;99.90;;;;;;4954667;29;20027;-83
2022/06/17 00:04:06;;;;;;;5.95;4.70;;;22.10;99.90;;;;;;4952494;29;20200;-83
2022/06/17 00:06:50;;;;;;;5.75;4.95;;;22.10;99.90;;;;;;4951734;28;20034;-83
2022/06/17 00:09:19;;;;;;;6.35;5.13;;;22.00;99.90;;;;;;4952369;29;20027;-84
2022/06/17 00:11:45;;;;;;;6.32;5.07;;;21.90;99.90;;;;;;4952517;29;20468;-83
2022/06/17 00:14:16;;;;;;;9.57;5.32;;;21.90;99.90;;;;;;4952221;28;20059;-83
2022/06/17 00:16:43;;;;;;;5.32;4.82;;;22.00;99.90;;;;;;4954223;29;20035;-83
2022/06/17 00:19:10;;;;;;;7.60;5.15;;;22.00;99.90;;;;;;4949848;29;20118;-84
2022/06/17 00:21:46;;;;;;;6.35;5.35;;;22.00;99.90;;;;;;4949424;28;20032;-83
2022/06/17 00:24:18;;;;;;;5.78;4.57;;;22.00;99.90;;;;;;4952339;29;20419;-83
2022/06/17 00:26:44;;;;;;;10.25;5.15;;;21.90;99.90;;;;;;4952183;28;20436;-84
2022/06/17 00:29:15;;;;;;;5.82;4.97;;;21.80;99.90;;;;;;4952206;29;20096;-82
2022/06/17 00:31:44;;;;;;;5.75;5.15;;;21.80;99.90;;;;;;4952468;28;20055;-82
2022/06/17 00:34:10;;;;;;;5.93;4.88;;;21.70;99.90;;;;;;4951907;28;20038;-83
2022/06/17 00:36:36;;;;;;;8.18;5.18;;;21.60;99.90;;;;;;4952336;29;20463;-83
2022/06/17 00:39:09;;;;;;;6.10;5.45;;;21.50;99.90;;;;;;4952150;29;20043;-83
2022/06/17 00:41:39;;;;;;;7.78;4.80;;;21.40;99.90;;;;;;4952262;29;20031;-83
2022/06/17 00:44:30;;;;;;;5.97;5.38;;;21.30;99.90;;;;;;4952196;28;20038;-83
2022/06/17 00:47:07;;;;;;;8.23;5.45;;;21.20;99.90;;;;;;4949472;28;20031;-83
2022/06/17 00:50:13;;;;;;;5.80;5.28;;;21.10;99.90;;;;;;4951955;29;20047;-83
2022/06/17 00:53:00;;;;;;;5.70;5.13;;;21.20;99.90;;;;;;4948885;28;20031;-83
2022/06/17 00:55:50;;;;;;;5.47;4.93;;;21.20;99.90;;;;;;4952564;28;20035;-83
2022/06/17 00:58:34;;;;;;;6.95;5.20;;;21.00;99.90;;;;;;4952273;28;20055;-83
2022/06/17 01:01:02;;;;;;;7.63;5.88;;;20.90;99.90;;;;;;4949841;28;20023;-83
2022/06/17 01:03:33;;;;;;;7.38;5.30;;;20.90;99.90;;;;;;4951671;29;20510;-82
2022/06/17 01:06:07;;;;;;;7.63;5.55;;;20.90;99.90;;;;;;4952019;29;20515;-83
2022/06/17 01:11:32;;;;;;;7.15;5.15;;;20.80;99.90;;;;;;4938442;29;20086;-83
2022/06/17 01:14:00;;;;;;;6.07;5.47;;;20.80;99.90;;;;;;4953242;29;20020;-83
2022/06/17 01:16:30;;;;;;;7.47;5.50;;;20.90;99.90;;;;;;4952210;29;20106;-83
2022/06/17 01:18:57;;;;;;;6.97;5.53;;;20.90;99.90;;;;;;4949676;28;20046;-83
2022/06/17 01:21:53;;;;;;;6.00;5.00;;;20.90;99.90;;;;;;4951727;29;20015;-83
2022/06/17 01:24:19;;;;;;;7.22;5.35;;;20.90;99.90;;;;;;4951544;29;20023;-83
2022/06/17 01:26:46;;;;;;;6.13;5.07;;;21.00;99.90;;;;;;4951760;28;20027;-83
2022/06/17 01:29:15;;;;;;;7.00;5.30;;;20.80;99.90;;;;;;4951435;29;20043;-83
2022/06/17 01:31:47;;;;;;;5.82;5.25;;;20.90;99.90;;;;;;4952188;28;20039;-83
2022/06/17 01:34:13;;;;;;;7.28;5.65;;;20.90;99.90;;;;;;4951858;29;20578;-83
2022/06/17 01:36:42;;;;;;;6.82;5.00;;;20.70;99.90;;;;;;4951702;28;20114;-83
2022/06/17 01:39:08;;;;;;;5.55;4.93;;;20.70;99.90;;;;;;4955137;29;20046;-83
2022/06/17 01:41:34;;;;;;;8.05;5.53;;;20.70;99.90;;;;;;4955333;28;20027;-83
2022/06/17 01:44:13;;;;;;;7.40;5.45;;;20.60;99.90;;;;;;4956131;28;20042;-83
2022/06/17 01:46:41;;;;;;;6.43;5.28;;;20.60;99.90;;;;;;4955415;29;20031;-83
2022/06/17 01:49:09;;;;;;;6.28;5.50;;;20.60;99.90;;;;;;4955056;28;20035;-82
2022/06/17 01:51:38;;;;;;;6.57;5.65;;;20.60;99.90;;;;;;4953808;28;20027;-83
2022/06/17 01:54:10;;;;;;;6.10;5.40;;;20.60;99.90;;;;;;4954750;29;20055;-83
2022/06/17 01:56:38;;;;;;;6.80;5.60;;;20.60;99.90;;;;;;4954872;29;20435;-83
2022/06/17 01:59:18;;;;;;;6.53;5.93;;;20.40;99.90;;;;;;4954266;28;20039;-83
2022/06/17 02:01:48;;;;;;;7.45;5.47;;;20.40;99.90;;;;;;4956067;29;20452;-83
2022/06/17 02:04:19;;;;;;;7.97;5.80;;;20.40;99.90;;;;;;4954582;28;20058;-83
2022/06/17 02:06:54;;;;;;;7.35;5.57;;;20.40;99.90;;;;;;4954596;29;20027;-83
2022/06/17 02:09:20;;;;;;;7.63;5.68;;;20.40;99.90;;;;;;4954578;28;20030;-83
2022/06/17 02:11:47;;;;;;;6.07;5.47;;;20.40;99.90;;;;;;4954611;29;20031;-81
2022/06/17 02:14:13;;;;;;;7.60;5.90;;;20.30;99.90;;;;;;4953815;29;20500;-80
2022/06/17 02:16:47;;;;;;;6.10;5.45;;;20.20;99.90;;;;;;4956159;28;20031;-80
2022/06/17 02:19:13;;;;;;;6.38;5.72;;;20.00;99.90;;;;;;4952885;28;20073;-81
2022/06/17 02:21:43;;;;;;;12.40;6.30;;;20.20;99.90;;;;;;4954434;28;20054;-81
2022/06/17 02:24:10;;;;;;;6.85;6.05;;;20.30;99.90;;;;;;4954358;28;20019;-81
2022/06/17 02:26:38;;;;;;;7.05;5.75;;;20.10;99.90;;;;;;4954258;29;20133;-80
2022/06/17 02:29:09;;;;;;;6.20;5.63;;;20.30;99.90;;;;;;4953842;28;20503;-80
2022/06/17 02:31:37;;;;;;;6.35;5.75;;;20.30;99.90;;;;;;4950204;28;20067;-80
2022/06/17 02:34:08;;;;;;;8.40;6.13;;;20.30;99.90;;;;;;4954054;29;20492;-80
2022/06/17 02:36:58;;;;;;;7.28;5.78;;;20.30;99.90;;;;;;4953994;29;20034;-80
2022/06/17 02:39:26;;;;;;;7.88;5.78;;;20.20;99.90;;;;;;4954055;28;20123;-80
2022/06/17 02:41:52;;;;;;;6.40;5.80;;;20.10;99.90;;;;;;4953933;29;20016;-80
2022/06/17 02:44:27;;;;;;;6.70;5.93;;;20.00;99.90;;;;;;4951928;28;20101;-80
2022/06/17 02:46:55;;;;;;;7.03;6.10;;;20.00;99.90;;;;;;4952106;28;20023;-80
2022/06/17 02:49:26;;;;;;;6.80;6.05;;;20.00;99.90;;;;;;4954434;28;20023;-80
2022/06/17 02:51:53;;;;;;;8.65;5.70;;;20.00;99.90;;;;;;4953696;28;20023;-81
2022/06/17 02:54:28;;;;;;;8.88;6.22;;;20.00;99.90;;;;;;4953631;29;20035;-81
2022/06/17 02:56:56;;;;;;;8.65;5.85;;;20.00;99.90;;;;;;4953754;28;20479;-83
2022/06/17 02:59:48;;;;;;;6.45;5.85;;;20.00;99.90;;;;;;4951077;28;20039;-83
2022/06/17 03:02:21;;;;;;;6.15;5.43;;;20.20;99.90;;;;;;4943136;28;20065;-84
2022/06/17 03:04:48;;;;;;;6.95;6.35;;;20.30;99.90;;;;;;4951633;28;20027;-83
2022/06/17 03:07:16;;;;;;;8.10;5.93;;;20.30;99.90;;;;;;4952433;29;20035;-83
2022/06/17 03:09:43;;;;;;;7.07;6.38;;;20.30;99.90;;;;;;4953240;28;20081;-84
2022/06/17 03:12:11;;;;;;;11.50;6.30;;;20.20;99.90;;;;;;4952812;29;20121;-83
2022/06/17 03:14:53;;;;;;;6.40;5.80;;;20.00;99.90;;;;;;4950961;29;20031;-84
2022/06/17 03:17:23;;;;;;;10.60;6.15;;;20.00;99.90;;;;;;4951124;29;20028;-83
2022/06/17 03:19:49;;;;;;;7.32;6.15;;;20.00;99.90;;;;;;4950988;29;20046;-82
2022/06/17 03:22:15;;;;;;;8.38;5.90;;;19.90;99.90;;;;;;4953115;28;20492;-83
2022/06/17 03:24:58;;;;;;;6.50;5.90;;;19.90;99.90;;;;;;4952688;29;20147;-85
2022/06/17 03:27:38;;;;;;;6.10;5.50;;;19.90;99.90;;;;;;4951236;28;20516;-84
2022/06/17 03:30:05;;;;;;;6.80;6.10;;;19.90;99.90;;;;;;4933912;29;20039;-85
2022/06/17 03:32:38;;;;;;;8.25;6.05;;;19.80;99.90;;;;;;4952986;29;20035;-83
2022/06/17 03:35:04;;;;;;;8.77;6.55;;;19.70;99.90;;;;;;4953092;29;20050;-84
2022/06/17 03:37:56;;;;;;;8.32;6.30;;;19.70;99.90;;;;;;4954735;29;20085;-84
2022/06/17 03:40:36;;;;;;;7.53;6.05;;;19.80;99.90;;;;;;4952499;28;20558;-84
2022/06/17 03:43:15;;;;;;;7.35;6.13;;;19.70;99.90;;;;;;4952428;28;20139;-84
2022/06/17 03:45:55;;;;;;;10.15;6.43;;;19.60;99.90;;;;;;4951819;28;20027;-85
2022/06/17 03:48:27;;;;;;;7.25;6.50;;;19.60;99.90;;;;;;4952197;29;20596;-84
2022/06/17 03:50:53;;;;;;;6.97;6.22;;;19.50;99.90;;;;;;4952679;29;20027;-84
2022/06/17 03:53:23;;;;;;;10.18;6.32;;;19.60;99.90;;;;;;4937338;29;20035;-84
2022/06/17 03:55:54;;;;;;;12.93;6.80;;;19.60;99.90;;;;;;4951028;28;20038;-84
2022/06/17 03:58:21;;;;;;;11.43;6.53;;;19.50;99.90;;;;;;4950582;28;20046;-85
2022/06/17 04:01:12;;;;;;;7.60;6.38;;;19.50;99.90;;;;;;4951824;28;20043;-84
2022/06/17 04:03:41;;;;;;;7.03;6.30;;;19.40;99.90;;;;;;4941508;29;20407;-84
2022/06/17 04:06:16;;;;;;;10.00;7.03;;;19.50;99.90;;;;;;4952730;28;20562;-84
2022/06/17 04:08:57;;;;;;;9.65;6.53;;;19.50;99.90;;;;;;4954056;29;20415;-84
2022/06/17 04:11:45;;;;;;;7.38;6.68;;;19.50;99.90;;;;;;4937060;29;20044;-84
2022/06/17 04:14:41;;;;;;;7.13;6.43;;;19.50;99.90;;;;;;4950634;28;20067;-85
2022/06/17 04:17:20;;;;;;;10.15;6.60;;;19.60;99.90;;;;;;4950847;28;20031;-84
2022/06/17 04:19:52;;;;;;;7.63;6.93;;;19.50;99.90;;;;;;4954408;29;20115;-84
2022/06/17 04:22:22;;;;;;;8.10;6.43;;;19.60;99.90;;;;;;4952858;29;20078;-84
2022/06/17 04:24:54;;;;;;;7.50;6.50;;;19.40;99.90;;;;;;4952157;29;20114;-84
2022/06/17 04:27:21;;;;;;;8.52;6.40;;;19.50;99.90;;;;;;4951747;29;20086;-84
2022/06/17 04:29:50;;;;;;;9.80;6.75;;;19.70;99.90;;;;;;4951584;29;20070;-84
2022/06/17 04:32:27;;;;;;;8.20;6.63;;;19.60;99.90;;;;;;4935115;29;20039;-84
2022/06/17 04:34:53;;;;;;;8.07;6.70;;;19.70;99.90;;;;;;4950406;28;20082;-84
2022/06/17 04:37:21;;;;;;;7.57;6.30;;;19.70;99.90;;;;;;4951428;29;20043;-84
2022/06/17 04:39:53;;;;;;;9.00;6.55;;;19.60;99.90;;;;;;4952351;29;20118;-84
2022/06/17 04:42:33;;;;;;;9.65;6.90;;;19.60;99.90;;;;;;4951657;29;20019;-84
2022/06/17 04:44:59;;;;;;;7.45;6.57;;;19.60;99.90;;;;;;4950407;28;20024;-82
2022/06/17 04:47:25;;;;;;;8.27;6.63;;;19.60;99.90;;;;;;4952165;29;20076;-84
2022/06/17 04:49:55;;;;;;;7.28;6.45;;;19.70;99.90;;;;;;4953886;29;20392;-83
2022/06/17 04:52:30;;;;;;;11.68;6.85;;;19.80;99.90;;;;;;4951473;29;20036;-83
2022/06/17 04:54:58;;;;;;;8.43;7.22;;;19.70;99.90;;;;;;4951772;29;20019;-84
2022/06/17 04:57:24;;;;;;;9.50;6.47;;;19.70;99.90;;;;;;4951614;28;20118;-84
2022/06/17 04:59:49;;;;;;;9.05;6.50;;;19.70;99.90;;;;;;4952138;28;20102;-84
2022/06/17 05:02:17;;;;;;;8.98;6.85;;;19.90;99.90;;;;;;4952008;29;20031;-84
2022/06/17 05:04:44;;;;;;;8.98;6.57;;;20.10;99.90;;;;;;4954021;29;20106;-84
2022/06/17 05:07:10;;;;;;;7.65;6.38;;;20.20;99.90;;;;;;4951850;29;20381;-84
2022/06/17 05:10:04;;;;;;;7.50;6.30;;;20.40;99.90;;;;;;4951539;28;20059;-84
2022/06/17 05:12:33;;;;;;;11.93;6.60;;;20.30;99.90;;;;;;4940823;28;20039;-84
2022/06/17 05:15:11;;;;;;;9.07;6.30;;;20.40;99.90;;;;;;4945350;28;20034;-83
2022/06/17 05:17:38;;;;;;;8.25;6.57;;;20.30;99.90;;;;;;4955492;29;20134;-85
2022/06/17 05:20:05;;;;;;;7.97;6.80;;;20.30;99.90;;;;;;4955886;28;20031;-83
2022/06/17 05:22:44;;;;;;;8.07;6.47;;;20.40;99.90;;;;;;4955267;29;20030;-84
2022/06/17 05:25:37;;;;;;;8.48;6.75;;;20.60;99.90;;;;;;4954992;29;20019;-83
2022/06/17 05:28:04;;;;;;;9.40;7.82;;;20.60;99.90;;;;;;4955368;28;20038;-84
2022/06/17 05:30:37;;;;;;;7.90;7.03;;;20.70;99.90;;;;;;4954970;29;20043;-84
2022/06/17 05:33:02;;;;;;;9.23;6.93;;;20.60;99.90;;;;;;4954007;28;20433;-84
2022/06/17 05:35:28;;;;;;;10.00;6.80;;;20.70;99.90;;;;;;4955305;29;20023;-84
2022/06/17 05:37:54;;;;;;;9.23;7.03;;;20.80;99.90;;;;;;4956373;29;20484;-84
2022/06/17 05:40:19;;;;;;;8.73;6.75;;;20.90;99.90;;;;;;4955316;29;20035;-84
2022/06/17 05:42:46;;;;;;;9.05;6.65;;;21.00;99.90;;;;;;4952098;28;20019;-83
2022/06/17 05:45:18;;;;;;;10.02;6.70;;;21.10;99.90;;;;;;4952792;28;20031;-84
2022/06/17 05:47:43;;;;;;;9.23;7.15;;;21.30;99.90;;;;;;4954894;29;20074;-84
2022/06/17 05:50:11;;;;;;;13.75;7.13;;;21.30;99.90;;;;;;4954782;28;20400;-84
2022/06/17 05:52:56;;;;;;;8.85;7.30;;;21.30;99.90;;;;;;4956191;29;20487;-80
2022/06/17 05:55:23;;;;;;;9.48;7.55;;;21.40;99.90;;;;;;4954251;29;20031;-84
2022/06/17 05:57:50;;;;;;;11.30;7.68;;;21.60;99.90;;;;;;4954388;28;20032;-84
2022/06/17 06:00:17;;;;;;;8.45;7.22;;;21.40;99.90;;;;;;4952769;28;20027;-84
2022/06/17 06:02:43;;;;;;;20.52;8.10;;;21.60;99.90;;;;;;4952285;28;20563;-82
2022/06/17 06:05:13;;;;;;;11.00;7.15;;;21.70;99.90;;;;;;4954823;28;20019;-84
2022/06/17 06:07:38;;;;;;;12.88;7.55;;;21.90;99.90;;;;;;4956353;28;20062;-84
2022/06/17 06:10:05;;;;;;;12.27;7.90;;;21.90;99.90;;;;;;4954619;29;20066;-84
2022/06/17 06:15:15;;;;;;;10.10;7.80;;;22.40;99.90;;;;;;4954584;29;20054;-76
2022/06/17 06:17:45;;;;;;;11.95;6.85;;;22.20;99.90;;;;;;4953362;29;20176;-76
2022/06/17 06:20:11;;;;;;;8.75;6.95;;;22.30;99.90;;;;;;4952767;29;20086;-76
2022/06/17 06:22:37;;;;;;;8.27;6.90;;;22.40;99.90;;;;;;4955423;28;20015;-75
2022/06/17 06:25:03;;;;;;;8.35;6.75;;;22.60;99.90;;;;;;4954196;29;20381;-76
2022/06/17 06:27:28;;;;;;;9.43;7.00;;;22.60;99.90;;;;;;4917016;29;20432;-76
2022/06/17 06:29:54;;;;;;;10.75;7.28;;;22.70;99.90;;;;;;4953855;28;20559;-75
2022/06/17 06:32:20;;;;;;;8.30;7.18;;;22.80;99.90;;;;;;4937435;28;20079;-76
2022/06/17 06:34:46;;;;;;;12.27;7.05;;;22.90;99.90;;;;;;4955906;29;20073;-76
2022/06/17 06:37:13;;;;;;;8.73;6.43;;;22.70;99.90;;;;;;4951061;28;20043;-76
2022/06/17 06:39:38;;;;;;;11.23;7.03;;;22.80;99.90;;;;;;4953844;29;20031;-76
2022/06/17 06:42:04;;;;;;;12.52;7.10;;;23.00;99.90;;;;;;4953784;29;20028;-76
2022/06/17 06:44:30;;;;;;;7.90;6.38;;;22.90;99.90;;;;;;4953939;29;20428;-76
2022/06/17 06:46:56;;;;;;;9.43;6.35;;;23.00;99.90;;;;;;4955318;29;20078;-76
2022/06/17 06:49:21;;;;;;;9.10;6.32;;;23.10;99.90;;;;;;4954418;29;20031;-76
2022/06/17 06:51:47;;;;;;;10.00;6.78;;;23.20;99.90;;;;;;4951175;29;20027;-76
2022/06/17 06:54:12;;;;;;;9.23;6.60;;;23.30;99.90;;;;;;4952380;28;20452;-76
2022/06/17 06:56:38;;;;;;;10.43;6.25;;;23.40;99.90;;;;;;4953794;28;20031;-76
2022/06/17 06:59:03;;;;;;;7.32;6.63;;;23.50;99.90;;;;;;4954180;29;20042;-76
2022/06/17 07:01:29;;;;;;;9.85;6.45;;;23.50;99.90;;;;;;4955012;29;20485;-76
2022/06/17 07:03:54;;;;;;;10.75;6.60;;;23.50;99.90;;;;;;4953563;29;20034;-76
2022/06/17 07:06:20;;;;;;;10.07;6.93;;;23.50;99.90;;;;;;4953103;29;20019;-77
2022/06/17 07:08:46;;;;;;;11.27;6.78;;;23.50;99.90;;;;;;4952377;29;20114;-77
2022/06/17 07:11:15;;;;;;;10.13;6.90;;;23.70;99.90;;;;;;4953353;29;20070;-76
2022/06/17 07:13:40;;;;;;;9.15;6.57;;;23.80;99.90;;;;;;4955218;29;20059;-76
2022/06/17 07:16:06;;;;;;;11.77;7.00;;;23.90;99.90;;;;;;4939717;28;20036;-74
2022/06/17 07:18:34;;;;;;;8.60;6.93;;;23.90;99.90;;;;;;4945727;29;20439;-76
2022/06/17 07:21:10;;;;;;;13.57;7.35;;;24.10;99.90;;;;;;4942453;29;20030;-77
2022/06/17 07:23:38;;;;;;;11.30;7.30;;;24.20;99.90;;;;;;4951158;29;20031;-77
2022/06/17 07:26:12;;;;;;;10.60;6.35;;;24.20;99.90;;;;;;4950392;28;20031;-77
2022/06/17 07:28:37;;;;;;;8.45;5.93;;;24.20;99.90;;;;;;4957847;28;20031;-77
2022/06/17 07:31:03;;;;;;;7.63;6.93;;;24.30;99.90;;;;;;4952261;29;20048;-76
2022/06/17 07:33:30;;;;;;;9.18;6.82;;;24.40;99.90;;;;;;4950981;29;20031;-77
2022/06/17 07:36:00;;;;;;;10.07;6.95;;;24.50;99.90;;;;;;4949822;28;20027;-77
2022/06/17 07:41:18;;;;;;;9.93;7.20;;;24.70;99.90;;;;;;4951534;29;20208;-76
2022/06/17 07:43:44;;;;;;;10.52;6.80;;;24.70;99.90;;;;;;4954204;29;20046;-77
2022/06/17 07:46:10;;;;;;;7.85;6.80;;;24.70;99.90;;;;;;4950591;29;20031;-77
2022/06/17 07:48:38;;;;;;;10.13;6.70;;;24.70;99.90;;;;;;4950413;29;20182;-76
2022/06/17 07:51:05;;;;;;;10.30;7.05;;;24.90;99.90;;;;;;4951432;29;20027;-77
2022/06/17 07:53:32;;;;;;;10.75;6.90;;;25.00;99.90;;;;;;4950286;29;20035;-77
2022/06/17 07:55:59;;;;;;;11.68;7.18;;;25.10;99.90;;;;;;4953158;29;20032;-77
2022/06/17 07:58:25;;;;;;;10.77;7.25;;;25.00;99.90;;;;;;4953357;29;20399;-76
2022/06/17 08:00:51;;;;;;;10.82;7.75;;;25.00;99.90;;;;;;4951895;29;20034;-77
2022/06/17 08:03:18;;;;;;;11.00;7.32;;;25.00;99.90;;;;;;4949997;29;20035;-76
2022/06/17 08:05:48;;;;;;;12.00;6.88;;;25.10;99.90;;;;;;4951744;29;20027;-76
2022/06/17 08:08:21;;;;;;;9.35;7.20;;;25.30;99.90;;;;;;4952167;29;20039;-77
2022/06/17 08:10:49;;;;;;;10.98;6.93;;;25.30;99.90;;;;;;4954237;29;20039;-77
2022/06/17 08:13:14;;;;;;;14.20;6.60;;;25.40;99.90;;;;;;4949950;29;20035;-77
2022/06/17 08:15:40;;;;;;;13.85;6.57;;;25.60;99.90;;;;;;4948421;29;20119;-77
2022/06/17 08:18:05;;;;;;;14.23;6.72;;;25.70;99.90;;;;;;4949627;29;20158;-77
2022/06/17 08:20:33;;;;;;;12.18;7.45;;;25.70;99.90;;;;;;4950166;29;20032;-76
2022/06/17 08:23:02;;;;;;;15.65;6.82;;;25.70;99.90;;;;;;4952571;29;20098;-77
2022/06/17 08:25:29;;;;;;;9.90;6.60;;;25.90;99.90;;;;;;4951855;29;20039;-77
2022/06/17 08:27:57;;;;;;;10.50;6.28;;;25.80;99.90;;;;;;4950125;29;20110;-77
2022/06/17 08:30:26;;;;;;;10.38;6.70;;;26.00;99.90;;;;;;4948084;28;20129;-77
2022/06/17 08:32:53;;;;;;;12.57;6.32;;;26.10;99.90;;;;;;4949885;29;20031;-77
2022/06/17 08:35:31;;;;;;;9.80;6.30;;;26.10;99.90;;;;;;4950894;29;20039;-77
2022/06/17 08:38:07;;;;;;;8.15;6.35;;;26.20;99.90;;;;;;4949949;29;20122;-76
2022/06/17 08:40:53;;;;;;;9.65;6.53;;;26.40;99.90;;;;;;4951974;29;20123;-76
2022/06/17 08:43:52;;;;;;;11.80;6.55;;;26.50;99.90;;;;;;4952267;29;20062;-77
2022/06/17 08:47:02;;;;;;;9.40;6.57;;;26.40;99.90;;;;;;4950999;28;20050;-77
2022/06/17 08:49:49;;;;;;;8.10;5.78;;;26.60;99.90;;;;;;4953757;29;20082;-77
2022/06/17 08:52:40;;;;;;;7.80;6.35;;;26.90;99.90;;;;;;4955530;29;20031;-77
2022/06/17 08:55:44;;;;;;;9.98;6.90;;;27.10;99.90;;;;;;4854960;29;20052;-77
2022/06/17 08:58:36;;;;;;;11.25;6.10;;;27.20;99.90;;;;;;4850425;29;20628;-77
2022/06/17 09:01:12;;;;;;;7.22;5.93;;;27.10;99.90;;;;;;4860218;29;20157;-77
2022/06/17 09:03:38;;;;;;;9.70;6.47;;;27.10;99.90;;;;;;4856921;29;20076;-77
2022/06/17 09:06:27;;;;;;;9.13;6.22;;;27.30;99.90;;;;;;4850428;29;20542;-77
2022/06/17 09:09:25;;;;;;;10.68;6.10;;;27.60;99.90;;;;;;4860483;29;20132;-77
2022/06/17 09:12:18;;;;;;;7.85;6.18;;;27.60;99.90;;;;;;4860473;29;20045;-77
2022/06/17 09:15:03;;;;;;;8.27;5.63;;;27.80;99.90;;;;;;4860543;29;20086;-77
2022/06/17 09:17:47;;;;;;;11.90;6.05;;;28.00;99.90;;;;;;4847503;29;20574;-77
2022/06/17 09:20:17;;;;;;;9.90;5.93;;;28.20;99.90;;;;;;4845474;29;20133;-77
2022/06/17 09:22:49;;;;;;;8.30;5.75;;;28.10;99.90;;;;;;4847250;29;20490;-77
2022/06/17 09:25:21;;;;;;;7.65;5.53;;;28.10;99.90;;;;;;4849855;29;20552;-76
2022/06/17 09:27:50;;;;;;;7.45;5.25;;;28.20;99.90;;;;;;4856420;29;20459;-76
2022/06/17 09:30:22;;;;;;;15.07;6.63;;;28.30;99.90;;;;;;4856286;29;20142;-77
2022/06/17 09:33:17;;;;;;;7.60;5.85;;;28.30;99.90;;;;;;4918358;28;20035;-77
2022/06/17 09:35:49;;;;;;;8.40;6.25;;;28.40;99.90;;;;;;4942474;29;20046;-77
2022/06/17 09:38:14;;;;;;;7.63;5.90;;;28.30;99.90;;;;;;4955041;29;20046;-77
2022/06/17 09:41:01;;;;;;;7.05;5.60;;;28.50;99.90;;;;;;4957089;29;20027;-77
2022/06/17 09:43:32;;;;;;;7.85;5.53;;;28.60;99.90;;;;;;4956223;29;20452;-77
2022/06/17 09:46:13;;;;;;;9.70;5.82;;;28.50;99.90;;;;;;4953444;28;20027;-77
2022/06/17 09:48:50;;;;;;;9.55;5.93;;;28.60;99.90;;;;;;4954869;29;20415;-77
2022/06/17 09:51:26;;;;;;;9.32;5.97;;;28.60;99.90;;;;;;4953064;28;20508;-77
2022/06/17 09:54:15;;;;;;;9.43;5.80;;;28.70;99.90;;;;;;4954900;29;20027;-77
2022/06/17 09:57:03;;;;;;;6.80;5.53;;;28.90;99.90;;;;;;4941678;29;20412;-77
2022/06/17 09:59:41;;;;;;;7.18;5.80;;;29.10;99.90;;;;;;4946263;29;20035;-77
2022/06/17 10:02:33;;;;;;;12.63;5.68;;;29.10;99.90;;;;;;4954861;29;20042;-77
2022/06/17 10:05:01;;;;;;;6.60;5.05;;;29.20;99.90;;;;;;4945085;28;20551;-77
2022/06/17 10:07:57;;;;;;;7.30;5.45;;;29.30;99.90;;;;;;4955735;29;20027;-77
2022/06/17 10:10:39;;;;;;;7.47;5.38;;;29.30;99.90;;;;;;4953714;29;20066;-78
2022/06/17 10:13:17;;;;;;;7.78;4.88;;;29.40;99.90;;;;;;4951683;28;20496;-78
2022/06/17 10:18:48;;;;;;;5.93;5.32;;;29.70;99.90;;;;;;4953829;29;20042;-78
2022/06/17 10:21:21;;;;;;;7.93;5.30;;;29.50;99.90;;;;;;4953838;28;20035;-78
2022/06/17 10:24:12;;;;;;;7.60;5.40;;;29.70;99.90;;;;;;4953911;29;20043;-79
2022/06/17 10:26:47;;;;;;;5.45;4.60;;;29.70;99.90;;;;;;4860507;29;20129;-78
2022/06/17 10:29:35;;;;;;;8.52;5.00;;;29.70;99.90;;;;;;4867640;29;20069;-77
2022/06/17 10:32:03;;;;;;;7.82;4.80;;;29.80;99.90;;;;;;4871276;29;20414;-78
2022/06/17 10:34:58;;;;;;;5.65;5.15;;;30.00;99.90;;;;;;4863293;29;20041;-78
2022/06/17 10:37:26;;;;;;;11.07;5.05;;;30.30;99.90;;;;;;4862847;29;20094;-78
2022/06/17 10:39:53;;;;;;;6.72;5.43;;;30.00;99.90;;;;;;4863052;29;20071;-78
2022/06/17 10:42:21;;;;;;;8.63;5.20;;;29.90;99.90;;;;;;4862753;29;20503;-79
2022/06/17 10:44:52;;;;;;;10.25;5.60;;;30.20;99.90;;;;;;4872747;29;20449;-77
2022/06/17 10:47:29;;;;;;;7.20;4.95;;;30.40;99.90;;;;;;4858825;29;20090;-78
2022/06/17 10:49:59;;;;;;;6.68;4.90;;;30.60;99.90;;;;;;4870339;29;20036;-79
2022/06/17 10:52:34;;;;;;;5.72;5.03;;;30.70;99.90;;;;;;4863284;29;20053;-79
2022/06/17 10:55:03;;;;;;;7.35;4.90;;;30.70;99.90;;;;;;4858491;29;20105;-79
2022/06/17 10:57:31;;;;;;;6.90;4.60;;;30.70;99.90;;;;;;4861673;29;20029;-78
2022/06/17 10:59:57;;;;;;;5.47;4.97;;;30.70;99.90;;;;;;4862349;29;20045;-78
2022/06/17 11:02:28;;;;;;;12.85;5.18;;;30.70;99.90;;;;;;4858260;29;20063;-78
2022/06/17 11:05:00;;;;;;;7.35;4.72;;;30.80;99.90;;;;;;4951659;29;20034;-76
2022/06/17 11:07:39;;;;;;;5.85;4.93;;;31.00;99.90;;;;;;4953895;29;20090;-78
2022/06/17 11:10:14;;;;;;;5.45;4.93;;;31.20;99.90;;;;;;4949988;28;20031;-78
2022/06/17 11:13:04;;;;;;;7.97;4.88;;;31.50;99.90;;;;;;4935297;29;20078;-80
2022/06/17 11:15:34;;;;;;;6.35;4.70;;;31.50;99.90;;;;;;4952884;29;20054;-78
2022/06/17 11:18:30;;;;;;;6.00;4.60;;;31.50;99.90;;;;;;4952729;28;20082;-80
2022/06/17 11:21:02;;;;;;;6.65;4.90;;;31.40;99.90;;;;;;4952692;29;20464;-81
2022/06/17 11:23:33;;;;;;;6.55;4.60;;;31.40;99.90;;;;;;4942774;28;20039;-78
2022/06/17 11:26:26;;;;;;;7.55;4.57;;;31.70;99.90;;;;;;4953742;29;20633;-78
2022/06/17 11:29:13;;;;;;;7.50;4.60;;;31.80;99.90;;;;;;4950964;28;20090;-80
2022/06/17 11:31:41;;;;;;;6.05;4.53;;;31.80;99.90;;;;;;4952106;28;20047;-77
2022/06/17 11:34:15;;;;;;;7.10;4.65;;;31.80;99.90;;;;;;4952973;29;20050;-77
2022/06/17 11:36:56;;;;;;;6.40;4.78;;;32.00;99.90;;;;;;4952431;29;20035;-77
2022/06/17 11:39:31;;;;;;;9.32;4.55;;;32.00;99.90;;;;;;4949806;29;20042;-78
2022/06/17 11:41:58;;;;;;;5.43;4.63;;;32.00;99.90;;;;;;4950413;28;20080;-78
2022/06/17 11:44:24;;;;;;;5.78;4.35;;;32.40;99.90;;;;;;4952664;29;20042;-77
2022/06/17 11:46:57;;;;;;;6.47;4.45;;;32.40;99.90;;;;;;4950725;29;20024;-77
2022/06/17 11:49:24;;;;;;;7.05;4.38;;;32.70;99.90;;;;;;4950991;29;20031;-78
2022/06/17 11:51:51;;;;;;;6.18;4.30;;;33.00;99.90;;;;;;4952559;29;20031;-77
2022/06/17 11:54:23;;;;;;;5.57;4.55;;;33.00;99.90;;;;;;4950412;29;20569;-77
2022/06/17 11:56:49;;;;;;;6.30;4.47;;;33.10;99.90;;;;;;4951021;29;20118;-77
2022/06/17 11:59:20;;;;;;;6.30;4.20;;;33.30;99.90;;;;;;4952900;29;20035;-77
2022/06/17 12:02:05;;;;;;;8.52;4.57;;;33.20;99.90;;;;;;4936813;29;20027;-77
2022/06/17 12:04:39;;;;;;;6.03;4.15;;;33.60;99.90;;;;;;4953810;29;20139;-78
2022/06/17 12:07:42;;;;;;;4.63;4.22;;;33.80;99.90;;;;;;4951928;28;20039;-78
2022/06/17 12:10:32;;;;;;;6.65;3.90;;;34.00;99.90;;;;;;4949864;28;20039;-77
2022/06/17 12:13:19;;;;;;;4.70;3.90;;;35.00;99.90;;;;;;4949735;29;20027;-77
2022/06/17 12:15:52;;;;;;;5.07;4.40;;;36.80;99.90;;;;;;4951788;28;20527;-77
2022/06/17 12:18:26;;;;;;;4.53;4.05;;;38.40;99.90;;;;;;4950753;29;20035;-78
2022/06/17 12:21:00;;;;;;;6.78;3.70;;;39.20;99.90;;;;;;4951507;28;20034;-78
2022/06/17 12:23:43;;;;;;;6.20;3.72;;;40.10;99.90;;;;;;4942408;28;20119;-78
2022/06/17 12:26:32;;;;;;;6.03;4.10;;;40.80;99.90;;;;;;4951359;29;20126;-77
2022/06/17 12:29:06;;;;;;;7.47;3.80;;;40.50;99.90;;;;;;4953426;29;20035;-78
2022/06/17 12:31:45;;;;;;;4.82;3.80;;;40.70;99.90;;;;;;4952557;28;20520;-78
2022/06/17 12:34:33;;;;;;;4.95;3.80;;;41.40;99.90;;;;;;4951723;29;20039;-78
2022/06/17 12:37:07;;;;;;;6.18;3.83;;;41.70;99.90;;;;;;4951947;29;20023;-78
2022/06/17 12:39:44;;;;;;;9.05;3.85;;;41.70;99.90;;;;;;4951053;29;20575;-78
2022/06/17 12:42:22;;;;;;;4.45;3.50;;;41.90;99.90;;;;;;4932316;29;20059;-78
2022/06/17 12:45:20;;;;;;;6.38;3.50;;;41.30;99.90;;;;;;4951070;28;20384;-78
2022/06/17 12:48:05;;;;;;;6.85;3.50;;;42.00;99.90;;;;;;4940432;28;20020;-78
2022/06/17 12:54:24;;;;;;;5.03;3.40;;;41.90;99.90;;;;;;4938685;29;20054;-78
2022/06/17 12:57:12;;;;;;;4.35;3.03;;;41.30;99.90;;;;;;4940059;29;20040;-79
2022/06/17 13:00:03;;;;;;;5.93;3.53;;;40.60;99.90;;;;;;4938341;29;20126;-78
2022/06/17 13:02:46;;;;;;;4.07;3.42;;;40.60;99.90;;;;;;4939957;29;20512;-79
2022/06/17 13:05:35;;;;;;;4.60;3.42;;;40.70;99.90;;;;;;4949899;28;20036;-78
2022/06/17 13:08:13;;;;;;;3.60;3.10;;;40.40;99.90;;;;;;4932475;29;20071;-79
2022/06/17 13:11:04;;;;;;;8.30;3.50;;;40.70;99.90;;;;;;4952498;29;20369;-78
2022/06/17 13:13:56;;;;;;;5.10;3.38;;;40.80;99.90;;;;;;4952856;28;20086;-78
2022/06/17 13:16:47;;;;;;;7.30;3.78;;;40.80;99.90;;;;;;4950640;29;20177;-78
2022/06/17 13:19:36;;;;;;;3.97;3.08;;;41.10;99.90;;;;;;4949997;28;20039;-78
2022/06/17 13:22:13;;;;;;;4.68;3.35;;;40.30;99.90;;;;;;4950328;29;20050;-78
2022/06/17 13:24:58;;;;;;;4.82;3.15;;;40.70;99.90;;;;;;4951324;29;20020;-79
2022/06/17 13:27:58;;;;;;;6.82;3.45;;;40.60;99.90;;;;;;4951154;29;20031;-78
2022/06/17 13:30:32;;;;;;;3.42;3.13;;;40.30;99.90;;;;;;4933549;29;20396;-79
2022/06/17 13:33:19;;;;;;;4.50;3.05;;;40.20;99.90;;;;;;4952047;28;20041;-78
2022/06/17 13:36:13;;;;;;;4.95;2.95;;;40.70;99.90;;;;;;4952757;28;20123;-78